^^
Station Historical Data
Daily Summary for January 8, 2018 Units:  Metric    English   Both
« Previous Day
Next Day »
Daily Weekly Monthly Yearly Custom
  High: Low: Average:
Temperature: -17.8 °C -20.4 °C -18.6 °C
Dew Point: -17.8 °C -21.3 °C -20.2 °C
Humidity: Humidity% 71% 81%
Wind Speed: 0km/h 0km/h 5.5km/h
Wind Gust: 0km/h - -
Wind- - WNW
Pressure: 0 hPa 34164.7 hPa -
Precipitation: 0 mm    
Historical Graphs
 
 
Tabular Data for January 8, 2018
Time Temperature Dew Point Pressure Wind Wind Speed Wind Gust Humidity Rainfall Rate (Hourly) solar Conditions
-17.8 °C -17.8 °C 0 hPa Calm     Humidity% 0 mm SoftwareType W/m2 Conditions
00:00 -17.9 °C -19.7 °C 34164.7 hPa West 7.2 km/h 26.9 km/h 79% 0 mm WeatherDisplay:10.37 W/m2 FEW
00:05 -17.9 °C -19.8 °C 34164.7 hPa NNW 3.7 km/h 9 km/h 78% 0 mm WeatherDisplay:10.37 W/m2 FEW
00:10 -17.8 °C -19.8 °C 34164.7 hPa NW 11.9 km/h 33.6 km/h 77% 0 mm WeatherDisplay:10.37 W/m2 FEW
00:16 -17.7 °C -19.8 °C 34164.7 hPa WNW 3.1 km/h 11.9 km/h 76% 0 mm WeatherDisplay:10.37 W/m2 FEW
00:21 -17.7 °C -19.8 °C 34164.7 hPa NW 9.3 km/h 36.2 km/h 76% 0 mm WeatherDisplay:10.37 W/m2 FEW
00:26 -17.6 °C -19.8 °C 34164.7 hPa SE 6.3 km/h 26.9 km/h 75% 0 mm WeatherDisplay:10.37 W/m2 FEW
00:32 -17.6 °C -19.8 °C 34164.7 hPa NW 5.6 km/h 10.3 km/h 75% 0 mm WeatherDisplay:10.37 W/m2 FEW
00:37 -17.6 °C -19.8 °C 34178.3 hPa NNW 20.8 km/h 29.8 km/h 75% 0 mm WeatherDisplay:10.37 W/m2 FEW
00:43 -17.6 °C -19.8 °C 34178.3 hPa West 10.3 km/h 29.8 km/h 74% 0 mm WeatherDisplay:10.37 W/m2 FEW
00:48 -17.6 °C -19.8 °C 34178.3 hPa West 6.3 km/h 15 km/h 74% 0 mm WeatherDisplay:10.37 W/m2 FEW
00:54 -17.5 °C -19.9 °C 34178.3 hPa NW 5 km/h 17.9 km/h 73% 0 mm WeatherDisplay:10.37 W/m2 FEW
00:59 -17.4 °C -19.8 °C 34178.3 hPa NNW 6.9 km/h 17.9 km/h 73% 0 mm WeatherDisplay:10.37 W/m2 FEW
01:04 -17.4 °C -19.9 °C 34178.3 hPa West 2.3 km/h 15 km/h 72% 0 mm WeatherDisplay:10.37 W/m2 FEW
01:09 -17.4 °C -19.8 °C 34178.3 hPa NNW 8.9 km/h 20.9 km/h 73% 0 mm WeatherDisplay:10.37 W/m2 FEW
01:15 -17.5 °C -19.9 °C 34188.4 hPa SW 15.3 km/h 29.8 km/h 73% 0 mm WeatherDisplay:10.37 W/m2 FEW
01:20 -17.4 °C -19.8 °C 34178.3 hPa WSW 20.8 km/h 44.7 km/h 73% 0 mm WeatherDisplay:10.37 W/m2 FEW
01:25 -17.5 °C -19.9 °C 34188.4 hPa North 1.8 km/h 11.9 km/h 73% 0 mm WeatherDisplay:10.37 W/m2 FEW
01:30 -17.6 °C -19.8 °C 34188.4 hPa ENE 4.2 km/h 20.9 km/h 74% 0 mm WeatherDisplay:10.37 W/m2 FEW
01:35 -17.6 °C -19.8 °C 34188.4 hPa NW 8.9 km/h 20.9 km/h 74% 0 mm WeatherDisplay:10.37 W/m2 FEW
01:40 -17.6 °C -19.8 °C 34188.4 hPa WSW 7.2 km/h 11.9 km/h 75% 0 mm WeatherDisplay:10.37 W/m2 FEW
01:45 -17.6 °C -19.7 °C 34198.6 hPa NNW 2.1 km/h   76% 0 mm WeatherDisplay:10.37 W/m2 FEW
01:51 -17.7 °C -19.7 °C 34198.6 hPa WNW 10.3 km/h 29.8 km/h 77% 0 mm WeatherDisplay:10.37 W/m2 FEW
01:56 -17.7 °C -19.7 °C 34188.4 hPa North 11.4 km/h 28.5 km/h 77% 0 mm WeatherDisplay:10.37 W/m2 FEW
02:01 -17.7 °C -19.6 °C 34198.6 hPa West 6.9 km/h 7.7 km/h 78% 0 mm WeatherDisplay:10.37 W/m2 FEW
02:06 -17.7 °C -19.6 °C 34198.6 hPa WNW 10.9 km/h 28.5 km/h 78% 0 mm WeatherDisplay:10.37 W/m2 FEW
02:11 -17.8 °C -19.5 °C 34198.6 hPa WNW 11.9 km/h 12.9 km/h 80% 0 mm WeatherDisplay:10.37 W/m2 FEW
02:17 -17.9 °C -19.5 °C 34198.6 hPa WSW 6.8 km/h 20.9 km/h 81% 0 mm WeatherDisplay:10.37 W/m2 FEW
02:23 -17.9 °C -19.3 °C 34198.6 hPa NW 14.8 km/h 29.8 km/h 83% 0 mm WeatherDisplay:10.37 W/m2 FEW
02:29 -18 °C -19.4 °C 34198.6 hPa WSW 11.9 km/h 29.8 km/h 83% 0 mm WeatherDisplay:10.37 W/m2 FEW
02:36 -18 °C -19.4 °C 34198.6 hPa SSW 3.9 km/h 9 km/h 83% 0 mm WeatherDisplay:10.37 W/m2 FEW
02:41 -18 °C -19.4 °C 34198.6 hPa WSW 5.1 km/h 23.8 km/h 83% 0 mm WeatherDisplay:10.37 W/m2 FEW
02:49 -18 °C -19.3 °C 34198.6 hPa South 6.9 km/h 11.9 km/h 84% 0 mm WeatherDisplay:10.37 W/m2 FEW
02:55 -18 °C -19.4 °C 34198.6 hPa NW 8.2 km/h 23.8 km/h 83% 0 mm WeatherDisplay:10.37 W/m2 FEW
03:06 -17.9 °C -19.4 °C 34198.6 hPa NNW 9 km/h 15 km/h 82% 0 mm WeatherDisplay:10.37 W/m2 FEW
03:11 -17.9 °C -19.4 °C 34212.1 hPa NNW 2.3 km/h 26.9 km/h 82% 0 mm WeatherDisplay:10.37 W/m2 FEW
03:16 -17.9 °C -19.4 °C 34212.1 hPa WNW 2.6 km/h 9 km/h 82% 0 mm WeatherDisplay:10.37 W/m2 FEW
03:24 -17.8 °C -19.4 °C 34212.1 hPa SSE 6 km/h 29.8 km/h 81% 0 mm WeatherDisplay:10.37 W/m2 FEW
03:29 -17.8 °C -19.4 °C 34212.1 hPa NNW 11.9 km/h 32.8 km/h 81% 0 mm WeatherDisplay:10.37 W/m2 FEW
03:34 -17.8 °C -19.5 °C 34212.1 hPa North 11.6 km/h 29.8 km/h 80% 0 mm WeatherDisplay:10.37 W/m2 FEW
03:39 -17.7 °C -19.4 °C 34212.1 hPa WNW 8.2 km/h 29.8 km/h 80% 0 mm WeatherDisplay:10.37 W/m2 FEW
03:45 -17.7 °C -19.3 °C 34235.8 hPa SSW 25.4 km/h 44.7 km/h 82% 0 mm WeatherDisplay:10.37 W/m2 FEW
03:50 -17.8 °C -19.2 °C 34235.8 hPa SE 8.2 km/h 20.9 km/h 84% 0 mm WeatherDisplay:10.37 W/m2 FEW
03:55 -17.9 °C -19.4 °C 34235.8 hPa North 11.9 km/h 35.7 km/h 82% 0 mm WeatherDisplay:10.37 W/m2 FEW
04:02 -17.8 °C -19.4 °C 34246 hPa WNW 20.3 km/h 35.7 km/h 81% 0 mm WeatherDisplay:10.37 W/m2 FEW
04:09 -17.7 °C -19.5 °C 34246 hPa NW 22.9 km/h 44.7 km/h 79% 0 mm WeatherDisplay:10.37 W/m2 FEW
04:17 -17.7 °C -19.6 °C 34256.2 hPa WNW 15.8 km/h 41.7 km/h 78% 0 mm WeatherDisplay:10.37 W/m2 FEW
04:25 -17.7 °C -19.7 °C 34256.2 hPa NW 10.3 km/h 32.8 km/h 77% 0 mm WeatherDisplay:10.37 W/m2 FEW
04:31 -17.7 °C -19.8 °C 34269.7 hPa NW 7.7 km/h 32.8 km/h 76% 0 mm WeatherDisplay:10.37 W/m2 FEW
04:36 -17.7 °C -19.8 °C 34269.7 hPa NNW 13.7 km/h 26.9 km/h 76% 0 mm WeatherDisplay:10.37 W/m2 FEW
04:41 -17.7 °C -19.8 °C 34279.9 hPa NW 18.7 km/h 44.1 km/h 76% 0 mm WeatherDisplay:10.37 W/m2 FEW
04:48 -17.8 °C -19.9 °C 34279.9 hPa North 11.1 km/h 12.9 km/h 75% 0 mm WeatherDisplay:10.37 W/m2 FEW
04:54 -17.8 °C -19.9 °C 34293.4 hPa NW 5.6 km/h 20.9 km/h 75% 0 mm WeatherDisplay:10.37 W/m2 FEW
05:01 -17.8 °C -20.1 °C 34303.6 hPa NNW 10.3 km/h 26.9 km/h 74% 0 mm WeatherDisplay:10.37 W/m2 FEW
05:06 -17.9 °C -20.1 °C 34303.6 hPa NNW 23.3 km/h 41.7 km/h 74% 0 mm WeatherDisplay:10.37 W/m2 FEW
05:12 -17.9 °C -20.1 °C 34303.6 hPa NW 9.7 km/h 26.9 km/h 74% 0 mm WeatherDisplay:10.37 W/m2 FEW
05:18 -17.9 °C -20.2 °C 34313.7 hPa NNW 18.7 km/h 32.8 km/h 74% 0 mm WeatherDisplay:10.37 W/m2 FEW
05:30 -17.9 °C -20.2 °C 34327.3 hPa NNE 13.7 km/h 50.7 km/h 74% 0 mm WeatherDisplay:10.37 W/m2 FEW
06:01 -18.2 °C -20.6 °C 34347.6 hPa NW 17.1 km/h 23.8 km/h 73% 0 mm WeatherDisplay:10.37 W/m2 FEW
06:48 -18.6 °C -20.9 °C 34395 hPa NNW 14.2 km/h 49.2 km/h 73% 0 mm WeatherDisplay:10.37 W/m2 FEW
07:59 -18.7 °C -20.8 °C 34452.6 hPa West 9.7 km/h 23.8 km/h 76% 0 mm WeatherDisplay:10.37 W/m2 FEW
09:40 -18.7 °C -20.9 °C 34533.8 hPa WNW 10.6 km/h 20.9 km/h 74% 0 mm WeatherDisplay:10.37 W/m2 FEW
09:53 -18.7 °C -20.9 °C 34544 hPa WNW 13.5 km/h 32.8 km/h 74% 0 mm WeatherDisplay:10.37 W/m2 FEW
10:36 -18.8 °C -21.1 °C 34577.8 hPa WNW 15 km/h 17.9 km/h 73% 0 mm WeatherDisplay:10.37 W/m2 FEW
11:05 -18.8 °C -21.2 °C 34591.4 hPa NNE 14 km/h 33.6 km/h 72% 0 mm WeatherDisplay:10.37 W/m2 FEW
11:13 -18.8 °C -21.2 °C 34601.5 hPa NNW 11.6 km/h 26.9 km/h 72% 0 mm WeatherDisplay:10.37 W/m2 FEW
11:20 -18.8 °C -21.2 °C 34601.5 hPa NW 22.2 km/h 44.7 km/h 72% 0 mm WeatherDisplay:10.37 W/m2 FEW
11:27 -18.7 °C -21.2 °C 34601.5 hPa WNW 13.5 km/h 32.8 km/h 72% 0 mm WeatherDisplay:10.37 W/m2 FEW
11:29 -18.7 °C -21.2 °C 34601.5 hPa North 15.3 km/h 23.8 km/h 72% 0 mm WeatherDisplay:10.37 W/m2 FEW
11:34 -18.7 °C -21.2 °C 34611.7 hPa North 9 km/h 20.9 km/h 72% 0 mm WeatherDisplay:10.37 W/m2 FEW
11:40 -18.7 °C -21.2 °C 34611.7 hPa NNW 9.8 km/h 35.7 km/h 72% 0 mm WeatherDisplay:10.37 W/m2 FEW
11:45 -18.7 °C -21.2 °C 34625.2 hPa NW 8.5 km/h 20.9 km/h 72% 0 mm WeatherDisplay:10.37 W/m2 FEW
11:51 -18.7 °C -21.2 °C 34625.2 hPa West 11.9 km/h 23.8 km/h 71% 0 mm WeatherDisplay:10.37 W/m2 FEW
11:57 -18.7 °C -21.2 °C 34625.2 hPa North 7.6 km/h 11.9 km/h 71% 0 mm WeatherDisplay:10.37 W/m2 FEW
12:02 -18.7 °C -21.2 °C 34625.2 hPa NW 14.5 km/h 26.9 km/h 71% 0 mm WeatherDisplay:10.37 W/m2 FEW
12:03 -18.7 °C -21.2 °C 34625.2 hPa NW 4.3 km/h 29.8 km/h 71% 0 mm WeatherDisplay:10.37 W/m2 FEW
12:08 -18.7 °C -21.2 °C 34625.2 hPa WNW 6.4 km/h 17.9 km/h 71% 0 mm WeatherDisplay:10.37 W/m2 FEW
12:15 -18.7 °C -21.2 °C 34625.2 hPa NW 11.9 km/h 23.8 km/h 71% 0 mm WeatherDisplay:10.37 W/m2 FEW
12:26 -18.7 °C -21.2 °C 34635.4 hPa NW 9 km/h 25.9 km/h 71% 0 mm WeatherDisplay:10.37 W/m2 FEW
12:31 -18.7 °C -21.2 °C 34635.4 hPa West 5 km/h 9 km/h 71% 0 mm WeatherDisplay:10.37 W/m2 FEW
12:36 -18.7 °C -21.2 °C 34645.6 hPa WNW 10.1 km/h 20.9 km/h 71% 0 mm WeatherDisplay:10.37 W/m2 FEW
12:42 -18.7 °C -21.2 °C 34645.6 hPa NNW 1 km/h 11.9 km/h 71% 0 mm WeatherDisplay:10.37 W/m2 FEW
12:47 -18.7 °C -21.2 °C 34645.6 hPa NW 9 km/h 17.9 km/h 71% 0 mm WeatherDisplay:10.37 W/m2 FEW
12:54 -18.7 °C -21.2 °C 34645.6 hPa NW 12.7 km/h 12.9 km/h 71% 0 mm WeatherDisplay:10.37 W/m2 FEW
13:00 -18.7 °C -21.2 °C 34659.1 hPa NW 1.8 km/h 9 km/h 71% 0 mm WeatherDisplay:10.37 W/m2 FEW
13:05 -18.7 °C -21.1 °C 34659.1 hPa NNW 2.3 km/h 11.9 km/h 72% 0 mm WeatherDisplay:10.37 W/m2 FEW
13:11 -18.7 °C -21.1 °C 34659.1 hPa West 5.6 km/h 20.9 km/h 72% 0 mm WeatherDisplay:10.37 W/m2 FEW
13:17 -18.7 °C -21.1 °C 34659.1 hPa NW 10.3 km/h 10.3 km/h 72% 0 mm WeatherDisplay:10.37 W/m2 FEW
13:22 -18.7 °C -21.1 °C 34659.1 hPa NW 3.1 km/h 32.8 km/h 72% 0 mm WeatherDisplay:10.37 W/m2 FEW
13:28 -18.7 °C -21.1 °C 34659.1 hPa WNW 8.2 km/h 15 km/h 72% 0 mm WeatherDisplay:10.37 W/m2 FEW
13:29 -18.7 °C -21.1 °C 34659.1 hPa WNW 3.4 km/h 11.9 km/h 72% 0 mm WeatherDisplay:10.37 W/m2 FEW
13:34 -18.7 °C -21.1 °C 34659.1 hPa WNW 6.8 km/h 15 km/h 72% 0 mm WeatherDisplay:10.37 W/m2 FEW
13:48 -18.7 °C -21.1 °C 34669.3 hPa NW 16.1 km/h 26.9 km/h 72% 0 mm WeatherDisplay:10.37 W/m2 FEW
13:53 -18.6 °C -21.1 °C 34669.3 hPa West 3.9 km/h 17.9 km/h 72% 0 mm WeatherDisplay:10.37 W/m2 FEW
14:01 -18.6 °C -20.9 °C 34669.3 hPa WNW 1.6 km/h 6 km/h 73% 0 mm WeatherDisplay:10.37 W/m2 FEW
14:08 -18.7 °C -21 °C 34682.8 hPa NNW 3.7 km/h 15.6 km/h 73% 0 mm WeatherDisplay:10.37 W/m2 FEW
14:14 -18.7 °C -20.9 °C 34682.8 hPa NNW 9 km/h 23.8 km/h 74% 0 mm WeatherDisplay:10.37 W/m2 FEW
14:22 -18.7 °C -20.8 °C 34682.8 hPa Calm   9 km/h 75% 0 mm WeatherDisplay:10.37 W/m2 FEW
14:33 -18.7 °C -20.7 °C 34693 hPa Calm     76% 0 mm WeatherDisplay:10.37 W/m2 FEW
14:39 -18.7 °C -20.8 °C 34693 hPa Calm     76% 0 mm WeatherDisplay:10.37 W/m2 FEW
14:51 -18.7 °C -20.7 °C 34693 hPa Calm     77% 0 mm WeatherDisplay:10.37 W/m2 FEW
14:57 -18.8 °C -20.7 °C 34693 hPa Calm     78% 0 mm WeatherDisplay:10.37 W/m2 FEW
15:04 -18.9 °C -20.7 °C 34693 hPa Calm     79% 0 mm WeatherDisplay:10.37 W/m2 FEW
15:09 -18.9 °C -20.6 °C 34693 hPa Calm     80% 0 mm WeatherDisplay:10.37 W/m2 FEW
15:16 -19 °C -20.7 °C 34693 hPa Calm     80% 0 mm WeatherDisplay:10.37 W/m2 FEW
15:27 -19.1 °C -20.7 °C 34693 hPa Calm     81% 0 mm WeatherDisplay:10.37 W/m2 FEW
15:32 -19.2 °C -20.7 °C 34693 hPa Calm     81% 0 mm WeatherDisplay:10.37 W/m2 FEW
15:38 -19.3 °C -20.7 °C 34693 hPa Calm     82% 0 mm WeatherDisplay:10.37 W/m2 FEW
15:42 -19.3 °C -20.8 °C 34693 hPa Calm     82% 0 mm WeatherDisplay:10.37 W/m2 FEW
15:48 -19.4 °C -20.8 °C 34693 hPa Calm     83% 0 mm WeatherDisplay:10.37 W/m2 FEW
15:57 -19.5 °C -20.8 °C 34693 hPa Calm     84% 0 mm WeatherDisplay:10.37 W/m2 FEW
16:04 -19.6 °C -20.8 °C 34693 hPa Calm     85% 0 mm WeatherDisplay:10.37 W/m2 FEW
16:10 -19.6 °C -20.8 °C 34693 hPa Calm     85% 0 mm WeatherDisplay:10.37 W/m2 FEW
16:13 -19.7 °C -20.9 °C 34693 hPa Calm     85% 0 mm WeatherDisplay:10.37 W/m2 FEW
16:18 -19.7 °C -20.8 °C 34693 hPa Calm     86% 0 mm WeatherDisplay:10.37 W/m2 FEW
16:25 -19.7 °C -20.8 °C 34693 hPa Calm     86% 0 mm WeatherDisplay:10.37 W/m2 FEW
16:32 -19.7 °C -20.8 °C 34693 hPa Calm     86% 0 mm WeatherDisplay:10.37 W/m2 FEW
16:37 -19.8 °C -20.9 °C 34693 hPa Calm     86% 0 mm WeatherDisplay:10.37 W/m2 FEW
16:54 -19.9 °C -20.9 °C 34693 hPa Calm     87% 0 mm WeatherDisplay:10.37 W/m2 FEW
17:05 -20 °C -21 °C 34693 hPa Calm     87% 0 mm WeatherDisplay:10.37 W/m2 FEW
17:11 -20.1 °C -21.1 °C 34703.1 hPa Calm     87% 0 mm WeatherDisplay:10.37 W/m2 FEW
17:31 -20.2 °C -21.2 °C 34703.1 hPa Calm     88% 0 mm WeatherDisplay:10.37 W/m2 FEW
17:46 -20.4 °C -21.3 °C 34703.1 hPa Calm     89% 0 mm WeatherDisplay:10.37 W/m2 FEW
17:53 -20.3 °C -21.1 °C 34716.7 hPa Calm     90% 0 mm WeatherDisplay:10.37 W/m2 FEW
18:04 -20.2 °C -20.8 °C 34716.7 hPa Calm     91% 0 mm WeatherDisplay:10.37 W/m2 FEW
18:26 -19.8 °C -20.4 °C 34716.7 hPa Calm     91% 0 mm WeatherDisplay:10.37 W/m2 FEW
18:33 -19.7 °C -20.4 °C 34716.7 hPa Calm     91% 0 mm WeatherDisplay:10.37 W/m2 FEW
18:38 -19.6 °C -20.3 °C 34716.7 hPa Calm     91% 0 mm WeatherDisplay:10.37 W/m2 FEW
18:44 -19.6 °C -20.2 °C 34716.7 hPa Calm     91% 0 mm WeatherDisplay:10.37 W/m2 FEW
18:48 -19.5 °C -20.2 °C 34716.7 hPa Calm     91% 0 mm WeatherDisplay:10.37 W/m2 FEW
18:53 -19.4 °C -20.2 °C 34703.1 hPa Calm     91% 0 mm WeatherDisplay:10.37 W/m2 FEW
18:58 -19.4 °C -20.1 °C 34716.7 hPa Calm     91% 0 mm WeatherDisplay:10.37 W/m2 FEW
19:07 -19.3 °C -20 °C 34716.7 hPa Calm     91% 0 mm WeatherDisplay:10.37 W/m2 FEW
19:12 -19.3 °C -19.9 °C 34716.7 hPa Calm     91% 0 mm WeatherDisplay:10.37 W/m2 FEW
19:17 -19.2 °C -19.9 °C 34716.7 hPa Calm     91% 0 mm WeatherDisplay:10.37 W/m2 FEW
19:22 -19.2 °C -19.9 °C 34716.7 hPa Calm     91% 0 mm WeatherDisplay:10.37 W/m2 FEW
19:28 -19.1 °C -19.8 °C 34703.1 hPa Calm     91% 0 mm WeatherDisplay:10.37 W/m2 FEW
19:33 -19.1 °C -19.9 °C 34703.1 hPa Calm     90% 0 mm WeatherDisplay:10.37 W/m2 FEW
19:38 -19.1 °C -19.9 °C 34716.7 hPa Calm     90% 0 mm WeatherDisplay:10.37 W/m2 FEW
19:43 -19.1 °C -19.9 °C 34716.7 hPa Calm     90% 0 mm WeatherDisplay:10.37 W/m2 FEW
19:48 -19.1 °C -19.8 °C 34716.7 hPa Calm     90% 0 mm WeatherDisplay:10.37 W/m2 FEW
19:53 -19.1 °C -19.8 °C 34703.1 hPa Calm     90% 0 mm WeatherDisplay:10.37 W/m2 FEW
19:59 -19.1 °C -19.8 °C 34703.1 hPa Calm     90% 0 mm WeatherDisplay:10.37 W/m2 FEW
20:04 -19 °C -19.8 °C 34703.1 hPa Calm     90% 0 mm WeatherDisplay:10.37 W/m2 FEW
20:07 -19 °C -19.8 °C 34703.1 hPa Calm     90% 0 mm WeatherDisplay:10.37 W/m2 FEW
20:12 -19 °C -19.8 °C 34703.1 hPa Calm     90% 0 mm WeatherDisplay:10.37 W/m2 FEW
20:18 -19 °C -19.8 °C 34703.1 hPa Calm     90% 0 mm WeatherDisplay:10.37 W/m2 FEW
20:23 -19 °C -19.7 °C 34703.1 hPa Calm     91% 0 mm WeatherDisplay:10.37 W/m2 FEW
20:29 -18.9 °C -19.7 °C 34703.1 hPa Calm     91% 0 mm WeatherDisplay:10.37 W/m2 FEW
20:30 -18.9 °C -19.7 °C 34703.1 hPa Calm     91% 0 mm WeatherDisplay:10.37 W/m2 FEW
20:36 -18.9 °C -19.6 °C 34703.1 hPa Calm     91% 0 mm WeatherDisplay:10.37 W/m2 FEW
20:42 -18.9 °C -19.6 °C 34703.1 hPa Calm     91% 0 mm WeatherDisplay:10.37 W/m2 FEW
20:48 -18.9 °C -19.6 °C 34703.1 hPa Calm     91% 0 mm WeatherDisplay:10.37 W/m2 FEW
20:54 -18.9 °C -19.6 °C 34716.7 hPa Calm     91% 0 mm WeatherDisplay:10.37 W/m2 FEW
20:59 -18.9 °C -19.6 °C 34703.1 hPa Calm     91% 0 mm WeatherDisplay:10.37 W/m2 FEW
21:05 -18.8 °C -19.6 °C 34703.1 hPa Calm     91% 0 mm WeatherDisplay:10.37 W/m2 FEW
21:11 -18.8 °C -19.6 °C 34716.7 hPa Calm     91% 0 mm WeatherDisplay:10.37 W/m2 FEW
21:17 -18.8 °C -19.6 °C 34716.7 hPa Calm     91% 0 mm WeatherDisplay:10.37 W/m2 FEW
21:22 -18.8 °C -19.6 °C 34716.7 hPa Calm     91% 0 mm WeatherDisplay:10.37 W/m2 FEW
21:23 -18.8 °C -19.6 °C 34716.7 hPa Calm     91% 0 mm WeatherDisplay:10.37 W/m2 FEW
21:28 -18.8 °C -19.6 °C 34716.7 hPa Calm     91% 0 mm WeatherDisplay:10.37 W/m2 FEW
21:33 -18.8 °C -19.5 °C 34716.7 hPa Calm     91% 0 mm WeatherDisplay:10.37 W/m2 FEW
21:38 -18.8 °C -19.5 °C 34716.7 hPa Calm     91% 0 mm WeatherDisplay:10.37 W/m2 FEW
21:44 -18.8 °C -19.5 °C 34716.7 hPa Calm     91% 0 mm WeatherDisplay:10.37 W/m2 FEW
21:47 -18.8 °C -19.5 °C 34716.7 hPa Calm     91% 0 mm WeatherDisplay:10.37 W/m2 FEW
21:52 -18.8 °C -19.5 °C 34716.7 hPa Calm     91% 0 mm WeatherDisplay:10.37 W/m2 FEW
21:58 -18.8 °C -19.5 °C 34716.7 hPa Calm     91% 0 mm WeatherDisplay:10.37 W/m2 FEW
22:07 -18.7 °C -19.4 °C 34726.8 hPa Calm     91% 0 mm WeatherDisplay:10.37 W/m2 FEW
22:14 -18.7 °C -19.4 °C 34716.7 hPa Calm     91% 0 mm WeatherDisplay:10.37 W/m2 FEW
23:10 -18.6 °C -19.2 °C 34726.8 hPa Calm     92% 0 mm WeatherDisplay:10.37 W/m2 FEW
23:23 -18.5 °C -19.1 °C 34726.8 hPa Calm     92% 0 mm WeatherDisplay:10.37 W/m2 FEW
23:31 -18.5 °C -19.1 °C 34726.8 hPa Calm     92% 0 mm WeatherDisplay:10.37 W/m2 FEW
23:50 -18.5 °C -19.1 °C 34716.7 hPa Calm     93% 0 mm WeatherDisplay:10.37 W/m2 FEW
Tuulensuunkaari, Veikkola, Suomi
Compliments of Weather Underground - 2 mb